createdAt,value
2022-11-21T00:03:51.507Z,13.30
2022-11-21T00:08:47.894Z,12.48
2022-11-21T00:13:43.400Z,13.30
2022-11-21T00:18:46.424Z,13.50
2022-11-21T00:23:40.048Z,16.85
2022-11-21T00:28:33.552Z,11.85
2022-11-21T00:33:28.863Z,12.85
2022-11-21T00:38:25.761Z,14.68
2022-11-21T00:43:19.919Z,14.80
2022-11-21T00:48:13.107Z,14.48
2022-11-21T00:53:08.373Z,14.60
2022-11-21T00:58:01.871Z,13.70
2022-11-21T01:02:55.115Z,13.70
2022-11-21T01:07:56.165Z,12.35
2022-11-21T01:12:51.588Z,11.57
2022-11-21T01:17:44.957Z,11.50
2022-11-21T01:22:38.396Z,12.77
2022-11-21T01:27:41.437Z,12.98
2022-11-21T01:32:36.880Z,16.23
2022-11-21T01:37:42.358Z,15.80
2022-11-21T01:42:50.950Z,12.77
2022-11-21T01:47:45.793Z,11.93
2022-11-21T01:52:40.137Z,11.63
2022-11-21T01:57:42.700Z,13.95
2022-11-21T02:02:41.030Z,11.82
2022-11-21T02:07:41.122Z,11.25
2022-11-21T02:12:40.743Z,11.77
2022-11-21T02:17:34.723Z,13.27
2022-11-21T02:22:38.627Z,13.73
2022-11-21T02:27:33.394Z,15.93
2022-11-21T02:32:33.711Z,13.25
2022-11-21T02:37:26.925Z,14.18
2022-11-21T02:42:27.999Z,17.10
2022-11-21T02:47:23.977Z,11.10
2022-11-21T02:52:17.228Z,10.75
2022-11-21T02:57:10.800Z,12.45
2022-11-21T03:02:04.073Z,11.80
2022-11-21T03:06:58.758Z,14.27
2022-11-21T03:11:52.204Z,12.02
2022-11-21T03:16:45.461Z,10.00
2022-11-21T03:21:38.783Z,10.05
2022-11-21T03:26:33.284Z,12.63
2022-11-21T03:31:26.510Z,14.20
2022-11-21T03:36:19.872Z,14.00
2022-11-21T03:41:27.017Z,12.60
2022-11-21T03:46:21.717Z,10.40
2022-11-21T03:51:16.784Z,11.43
2022-11-21T03:56:10.082Z,14.05
2022-11-21T04:01:03.352Z,14.35
2022-11-21T04:05:58.012Z,13.15
2022-11-21T04:10:56.048Z,10.50
2022-11-21T04:15:54.221Z,11.57
2022-11-21T04:20:47.704Z,8.68
2022-11-21T04:25:42.906Z,10.60
2022-11-21T04:30:36.201Z,10.68
2022-11-21T04:35:29.381Z,11.77
2022-11-21T04:40:22.754Z,10.15
2022-11-21T04:45:21.791Z,10.25
2022-11-21T04:50:24.727Z,11.60
2022-11-21T04:55:19.280Z,8.38
2022-11-21T05:00:23.992Z,10.95
2022-11-21T05:05:21.196Z,8.65
2022-11-21T05:10:16.299Z,8.70
2022-11-21T05:15:10.515Z,10.00
2022-11-21T05:20:06.065Z,12.35
2022-11-21T05:24:59.507Z,11.73
2022-11-21T05:29:53.501Z,10.13
2022-11-21T05:34:57.200Z,10.18
2022-11-21T05:39:53.341Z,11.75
2022-11-21T05:44:46.695Z,13.40
2022-11-21T05:49:39.789Z,14.07
2022-11-21T05:54:32.898Z,13.13
2022-11-21T05:59:27.428Z,13.93
2022-11-21T06:04:21.153Z,12.85
2022-11-21T06:09:19.201Z,12.73
2022-11-21T06:14:24.919Z,10.23
2022-11-21T06:19:19.989Z,14.25
2022-11-21T06:24:26.097Z,13.23
2022-11-21T06:29:22.380Z,10.77
2022-11-21T06:34:21.367Z,11.90
2022-11-21T06:39:18.999Z,14.75
2022-11-21T06:44:15.312Z,16.25
2022-11-21T06:49:10.529Z,11.80
2022-11-21T06:54:07.957Z,14.45
2022-11-21T06:59:13.476Z,15.07
2022-11-21T07:04:08.974Z,16.75
2022-11-21T07:14:35.160Z,15.65
2022-11-21T07:19:28.793Z,13.70
2022-11-21T07:24:22.178Z,15.18
2022-11-21T07:29:16.500Z,12.05
2022-11-21T07:34:12.747Z,13.13
2022-11-21T07:39:06.699Z,11.35
2022-11-21T07:44:00.121Z,12.70
2022-11-21T07:48:53.332Z,14.45
2022-11-21T07:53:47.957Z,18.92
2022-11-21T07:58:41.891Z,23.63
2022-11-21T08:03:35.460Z,15.70
2022-11-21T08:08:28.645Z,16.17
2022-11-21T08:13:23.294Z,16.55
2022-11-21T08:18:19.203Z,16.25
2022-11-21T08:23:12.639Z,17.08
2022-11-21T08:28:06.699Z,15.07
2022-11-21T08:33:01.726Z,14.90
2022-11-21T08:37:58.230Z,17.42
2022-11-21T08:42:57.934Z,15.95
2022-11-21T08:47:51.132Z,16.27
2022-11-21T08:52:47.773Z,16.30
2022-11-21T08:57:41.274Z,17.63
2022-11-21T09:02:43.253Z,19.85
2022-11-21T09:07:36.922Z,18.13
2022-11-21T09:12:32.247Z,18.63
2022-11-21T09:17:42.837Z,19.95
2022-11-21T09:22:36.154Z,19.83
2022-11-21T09:27:29.593Z,19.58
2022-11-21T09:32:24.810Z,19.80
2022-11-21T09:37:18.201Z,23.70
2022-11-21T09:42:34.892Z,21.85
2022-11-21T09:47:34.404Z,21.35
2022-11-21T09:52:33.921Z,29.67
2022-11-21T09:57:33.545Z,28.13
2022-11-21T10:02:29.488Z,27.65
2022-11-21T10:07:27.312Z,26.00
2022-11-21T10:12:38.694Z,35.35
2022-11-21T10:17:48.029Z,36.42
2022-11-21T10:23:02.549Z,12.98
2022-11-21T10:28:01.539Z,13.63
2022-11-21T10:33:00.568Z,6.18
2022-11-21T10:37:59.325Z,6.30
2022-11-21T10:42:58.033Z,6.63
2022-11-21T10:47:52.789Z,5.32
2022-11-21T10:52:52.341Z,4.80
2022-11-21T10:57:47.607Z,4.80
2022-11-21T11:02:41.731Z,4.63
2022-11-21T11:07:35.022Z,5.38
2022-11-21T11:12:51.142Z,5.32
2022-11-21T11:17:46.375Z,4.18
2022-11-21T11:22:39.656Z,3.70
2022-11-21T11:27:34.440Z,5.32
2022-11-21T11:32:27.664Z,4.93
2022-11-21T11:37:40.130Z,3.80
2022-11-21T11:43:16.239Z,3.60
2022-11-21T11:48:11.053Z,4.40
2022-11-21T11:53:12.723Z,6.05
2022-11-21T11:58:14.469Z,5.88
2022-11-21T12:03:20.883Z,6.32
2022-11-21T12:08:40.771Z,5.18
2022-11-21T12:13:38.220Z,5.05
2022-11-21T12:18:37.543Z,7.40
2022-11-21T12:23:34.193Z,4.85
2022-11-21T12:28:38.259Z,4.82
2022-11-21T12:33:37.439Z,3.33
2022-11-21T12:38:47.772Z,5.18
2022-11-21T12:43:54.494Z,4.32
2022-11-21T12:49:18.448Z,5.15
2022-11-21T12:59:27.540Z,3.22
2022-11-21T13:04:36.029Z,4.40
2022-11-21T13:09:33.472Z,6.32
2022-11-21T13:14:45.927Z,2.40
2022-11-21T13:19:47.184Z,3.97
2022-11-21T13:24:57.622Z,3.95
2022-11-21T13:30:22.092Z,6.25
2022-11-21T13:35:48.602Z,8.20
2022-11-21T13:41:04.320Z,5.25
2022-11-21T13:45:59.497Z,5.55
2022-11-21T13:51:24.525Z,4.68
2022-11-21T13:56:30.931Z,5.07
2022-11-21T14:01:54.378Z,7.63
2022-11-21T14:06:48.435Z,7.97
2022-11-21T14:11:49.929Z,10.35
2022-11-21T14:16:49.728Z,17.95
2022-11-21T14:21:47.345Z,22.57
2022-11-21T14:26:47.160Z,14.20
2022-11-21T14:31:47.330Z,6.55
2022-11-21T14:36:47.727Z,18.40
2022-11-21T14:41:44.289Z,9.25
2022-11-21T14:46:39.634Z,14.18
2022-11-21T14:51:34.834Z,20.45
2022-11-21T14:56:35.411Z,12.18
2022-11-21T15:06:59.562Z,12.05
2022-11-21T15:11:59.878Z,9.48
2022-11-21T15:16:58.965Z,6.13
2022-11-21T15:21:57.906Z,9.63
2022-11-21T15:26:51.257Z,9.70
2022-11-21T15:31:46.131Z,9.13
2022-11-21T15:36:42.218Z,13.55
2022-11-21T15:41:37.065Z,11.85
2022-11-21T15:46:33.612Z,17.05
2022-11-21T15:52:05.612Z,9.68
2022-11-21T15:56:54.049Z,8.13
2022-11-21T16:01:47.753Z,8.88
2022-11-21T16:06:46.827Z,10.00
2022-11-21T16:11:50.867Z,7.38
2022-11-21T16:16:50.784Z,9.02
2022-11-21T16:21:44.802Z,10.80
2022-11-21T16:26:41.762Z,13.20
2022-11-21T16:31:35.604Z,12.48
2022-11-21T16:36:37.085Z,12.23
2022-11-21T16:41:32.713Z,13.98
2022-11-21T16:46:27.289Z,12.18
2022-11-21T16:51:25.977Z,9.90
2022-11-21T16:56:21.030Z,8.30
2022-11-21T17:01:16.573Z,7.25
2022-11-21T17:06:11.737Z,9.32
2022-11-21T17:11:15.167Z,7.90
2022-11-21T17:16:13.953Z,29.17
2022-11-21T17:21:13.901Z,7.75
2022-11-21T17:26:18.953Z,8.30
2022-11-21T17:31:22.668Z,30.25
2022-11-21T17:36:25.090Z,5.60
2022-11-21T17:41:22.181Z,6.68
2022-11-21T17:46:23.195Z,7.03
2022-11-21T17:51:21.571Z,6.72
2022-11-21T17:56:22.545Z,5.95
2022-11-21T18:01:27.563Z,6.60
2022-11-21T18:06:24.924Z,7.55
2022-11-21T18:12:04.562Z,9.63
2022-11-21T18:17:05.033Z,9.68
2022-11-21T18:22:03.110Z,8.43
2022-11-21T18:26:57.662Z,8.20
2022-11-21T18:31:51.375Z,10.18
2022-11-21T18:36:49.628Z,10.73
2022-11-21T18:41:51.640Z,10.38
2022-11-21T18:46:48.030Z,8.57
2022-11-21T18:52:05.719Z,8.18
2022-11-21T18:57:05.650Z,9.10
2022-11-21T19:02:02.192Z,15.98
2022-11-21T19:07:00.613Z,11.57
2022-11-21T19:11:56.855Z,14.27
2022-11-21T19:16:54.814Z,14.82
2022-11-21T19:21:51.570Z,12.23
2022-11-21T19:26:46.554Z,12.70
2022-11-21T19:31:45.376Z,13.35
2022-11-21T19:36:39.728Z,12.07
2022-11-21T19:41:38.593Z,12.57
2022-11-21T19:46:37.599Z,12.07
2022-11-21T19:51:34.116Z,12.80
2022-11-21T20:01:48.316Z,11.30
2022-11-21T20:06:46.525Z,12.60
2022-11-21T20:11:43.999Z,12.00
2022-11-21T20:24:53.517Z,11.48
2022-11-21T20:30:31.433Z,13.55
2022-11-21T20:35:39.561Z,12.95
2022-11-21T20:40:36.256Z,11.47
2022-11-21T20:57:23.834Z,13.20
2022-11-21T21:03:23.068Z,13.10
2022-11-21T21:08:35.062Z,13.88
2022-11-21T21:13:37.019Z,13.88
2022-11-21T21:19:24.397Z,11.95
2022-11-21T21:24:19.942Z,15.07
2022-11-21T21:29:15.473Z,13.48
2022-11-21T21:34:12.990Z,14.27
2022-11-21T21:39:10.116Z,12.52
2022-11-21T21:44:05.934Z,13.57
2022-11-21T21:49:28.933Z,14.20
2022-11-21T22:00:47.662Z,14.32
2022-11-21T22:06:16.963Z,13.13
2022-11-21T22:11:21.748Z,15.95
2022-11-21T22:16:47.751Z,12.45
2022-11-21T22:29:14.442Z,12.27
2022-11-21T22:34:26.971Z,13.55
2022-11-21T22:40:50.453Z,14.75
2022-11-21T22:45:50.116Z,15.10
2022-11-21T22:51:23.208Z,15.57
2022-11-21T22:56:28.066Z,15.88
2022-11-21T23:01:23.499Z,15.90
2022-11-21T23:06:30.074Z,18.55
2022-11-21T23:11:26.327Z,15.27
2022-11-21T23:16:26.643Z,18.15
2022-11-21T23:21:22.008Z,18.02
2022-11-21T23:26:16.644Z,16.95
2022-11-21T23:31:12.956Z,19.98
2022-11-21T23:36:10.713Z,19.85
2022-11-21T23:41:06.038Z,18.33
2022-11-21T23:45:59.614Z,18.73
2022-11-21T23:50:54.849Z,18.13
2022-11-21T23:55:49.921Z,17.77
